sensor_id;sensor_type;location;lat;lon;timestamp;P1;durP1;ratioP1;P2;durP2;ratioP2
59089;SDS011;44878;50.102;18.982;2023-01-08T00:01:04;200.67;;;181.57;;
59089;SDS011;44878;50.102;18.982;2023-01-08T00:03:44;197.73;;;178.80;;
59089;SDS011;44878;50.102;18.982;2023-01-08T00:06:11;190.73;;;173.03;;
59089;SDS011;44878;50.102;18.982;2023-01-08T00:08:42;205.63;;;185.73;;
59089;SDS011;44878;50.102;18.982;2023-01-08T00:11:10;205.13;;;185.17;;
59089;SDS011;44878;50.102;18.982;2023-01-08T00:13:36;212.77;;;192.20;;
59089;SDS011;44878;50.102;18.982;2023-01-08T00:16:04;170.63;;;154.43;;
59089;SDS011;44878;50.102;18.982;2023-01-08T00:18:32;191.93;;;173.07;;
59089;SDS011;44878;50.102;18.982;2023-01-08T00:20:58;210.30;;;189.20;;
59089;SDS011;44878;50.102;18.982;2023-01-08T00:23:28;189.60;;;170.77;;
59089;SDS011;44878;50.102;18.982;2023-01-08T00:25:54;195.60;;;176.70;;
59089;SDS011;44878;50.102;18.982;2023-01-08T00:28:20;181.67;;;164.33;;
59089;SDS011;44878;50.102;18.982;2023-01-08T00:30:47;174.60;;;157.70;;
59089;SDS011;44878;50.102;18.982;2023-01-08T00:33:13;188.43;;;169.93;;
59089;SDS011;44878;50.102;18.982;2023-01-08T00:35:40;185.93;;;167.57;;
59089;SDS011;44878;50.102;18.982;2023-01-08T00:38:06;187.27;;;169.23;;
59089;SDS011;44878;50.102;18.982;2023-01-08T00:40:33;181.33;;;163.60;;
59089;SDS011;44878;50.102;18.982;2023-01-08T00:42:59;162.43;;;146.57;;
59089;SDS011;44878;50.102;18.982;2023-01-08T00:45:26;176.93;;;159.90;;
59089;SDS011;44878;50.102;18.982;2023-01-08T00:47:52;184.83;;;166.23;;
59089;SDS011;44878;50.102;18.982;2023-01-08T00:50:18;181.90;;;164.03;;
59089;SDS011;44878;50.102;18.982;2023-01-08T00:52:44;150.67;;;136.53;;
59089;SDS011;44878;50.102;18.982;2023-01-08T00:55:10;179.50;;;161.23;;
59089;SDS011;44878;50.102;18.982;2023-01-08T00:57:37;177.83;;;160.33;;
59089;SDS011;44878;50.102;18.982;2023-01-08T01:00:05;182.80;;;164.65;;
59089;SDS011;44878;50.102;18.982;2023-01-08T01:02:34;186.67;;;168.07;;
59089;SDS011;44878;50.102;18.982;2023-01-08T01:07:27;174.20;;;157.03;;
59089;SDS011;44878;50.102;18.982;2023-01-08T01:09:56;166.23;;;150.27;;
59089;SDS011;44878;50.102;18.982;2023-01-08T01:12:22;164.33;;;147.97;;
59089;SDS011;44878;50.102;18.982;2023-01-08T01:14:48;161.77;;;145.83;;
59089;SDS011;44878;50.102;18.982;2023-01-08T01:17:14;165.73;;;148.97;;
59089;SDS011;44878;50.102;18.982;2023-01-08T01:19:40;161.07;;;145.60;;
59089;SDS011;44878;50.102;18.982;2023-01-08T01:22:08;162.80;;;146.20;;
59089;SDS011;44878;50.102;18.982;2023-01-08T01:24:34;160.13;;;144.53;;
59089;SDS011;44878;50.102;18.982;2023-01-08T01:27:00;167.30;;;150.73;;
59089;SDS011;44878;50.102;18.982;2023-01-08T01:29:27;162.07;;;146.02;;
59089;SDS011;44878;50.102;18.982;2023-01-08T01:31:53;165.23;;;148.90;;
59089;SDS011;44878;50.102;18.982;2023-01-08T01:34:22;164.17;;;147.80;;
59089;SDS011;44878;50.102;18.982;2023-01-08T01:36:48;172.47;;;155.17;;
59089;SDS011;44878;50.102;18.982;2023-01-08T01:39:14;162.83;;;146.77;;
59089;SDS011;44878;50.102;18.982;2023-01-08T01:41:41;159.20;;;143.50;;
59089;SDS011;44878;50.102;18.982;2023-01-08T01:49:52;149.83;;;135.43;;
59089;SDS011;44878;50.102;18.982;2023-01-08T01:52:27;152.50;;;137.17;;
59089;SDS011;44878;50.102;18.982;2023-01-08T01:54:58;141.60;;;127.83;;
59089;SDS011;44878;50.102;18.982;2023-01-08T01:57:27;172.20;;;155.13;;
59089;SDS011;44878;50.102;18.982;2023-01-08T01:59:59;147.37;;;132.93;;
59089;SDS011;44878;50.102;18.982;2023-01-08T02:02:29;159.67;;;143.83;;
59089;SDS011;44878;50.102;18.982;2023-01-08T02:05:00;148.57;;;134.03;;
59089;SDS011;44878;50.102;18.982;2023-01-08T02:07:32;139.83;;;126.37;;
59089;SDS011;44878;50.102;18.982;2023-01-08T02:10:15;154.80;;;139.77;;
59089;SDS011;44878;50.102;18.982;2023-01-08T02:12:52;148.27;;;133.67;;
59089;SDS011;44878;50.102;18.982;2023-01-08T02:18:31;139.03;;;126.10;;
59089;SDS011;44878;50.102;18.982;2023-01-08T02:23:41;159.27;;;143.83;;
59089;SDS011;44878;50.102;18.982;2023-01-08T02:28:44;156.77;;;141.77;;
59089;SDS011;44878;50.102;18.982;2023-01-08T02:31:14;151.87;;;137.43;;
59089;SDS011;44878;50.102;18.982;2023-01-08T02:33:42;158.38;;;143.00;;
59089;SDS011;44878;50.102;18.982;2023-01-08T02:53:10;131.43;;;118.53;;
59089;SDS011;44878;50.102;18.982;2023-01-08T02:55:36;131.37;;;118.90;;
59089;SDS011;44878;50.102;18.982;2023-01-08T02:58:08;132.27;;;119.50;;
59089;SDS011;44878;50.102;18.982;2023-01-08T03:00:35;143.03;;;129.13;;
59089;SDS011;44878;50.102;18.982;2023-01-08T03:03:07;136.93;;;123.55;;
59089;SDS011;44878;50.102;18.982;2023-01-08T03:05:40;141.68;;;128.13;;
59089;SDS011;44878;50.102;18.982;2023-01-08T03:08:10;131.37;;;118.87;;
59089;SDS011;44878;50.102;18.982;2023-01-08T03:10:37;135.33;;;122.13;;
59089;SDS011;44878;50.102;18.982;2023-01-08T03:13:07;142.60;;;129.00;;
59089;SDS011;44878;50.102;18.982;2023-01-08T03:15:53;139.07;;;125.33;;
59089;SDS011;44878;50.102;18.982;2023-01-08T03:18:30;144.00;;;130.10;;
59089;SDS011;44878;50.102;18.982;2023-01-08T03:21:01;144.75;;;130.70;;
59089;SDS011;44878;50.102;18.982;2023-01-08T03:23:30;153.53;;;138.43;;
59089;SDS011;44878;50.102;18.982;2023-01-08T03:25:59;145.63;;;131.47;;
59089;SDS011;44878;50.102;18.982;2023-01-08T03:30:57;153.33;;;137.80;;
59089;SDS011;44878;50.102;18.982;2023-01-08T03:33:25;122.47;;;111.03;;
59089;SDS011;44878;50.102;18.982;2023-01-08T03:35:58;160.63;;;144.63;;
59089;SDS011;44878;50.102;18.982;2023-01-08T03:38:30;139.20;;;125.47;;
59089;SDS011;44878;50.102;18.982;2023-01-08T03:41:01;135.83;;;122.50;;
59089;SDS011;44878;50.102;18.982;2023-01-08T03:43:30;139.80;;;126.07;;
59089;SDS011;44878;50.102;18.982;2023-01-08T03:45:57;129.70;;;117.20;;
59089;SDS011;44878;50.102;18.982;2023-01-08T03:48:27;138.43;;;124.87;;
59089;SDS011;44878;50.102;18.982;2023-01-08T03:50:58;132.87;;;120.07;;
59089;SDS011;44878;50.102;18.982;2023-01-08T03:53:24;122.07;;;110.10;;
59089;SDS011;44878;50.102;18.982;2023-01-08T03:55:50;107.40;;;97.17;;
59089;SDS011;44878;50.102;18.982;2023-01-08T03:58:16;116.90;;;105.70;;
59089;SDS011;44878;50.102;18.982;2023-01-08T04:00:42;121.50;;;109.73;;
59089;SDS011;44878;50.102;18.982;2023-01-08T04:03:08;138.07;;;124.53;;
59089;SDS011;44878;50.102;18.982;2023-01-08T04:05:34;115.27;;;104.37;;
59089;SDS011;44878;50.102;18.982;2023-01-08T04:08:01;120.67;;;109.53;;
59089;SDS011;44878;50.102;18.982;2023-01-08T04:10:26;136.77;;;123.53;;
59089;SDS011;44878;50.102;18.982;2023-01-08T04:12:56;147.37;;;132.73;;
59089;SDS011;44878;50.102;18.982;2023-01-08T04:15:22;134.20;;;121.20;;
59089;SDS011;44878;50.102;18.982;2023-01-08T04:17:48;116.83;;;105.53;;
59089;SDS011;44878;50.102;18.982;2023-01-08T04:20:17;125.90;;;113.53;;
59089;SDS011;44878;50.102;18.982;2023-01-08T04:22:43;115.80;;;104.63;;
59089;SDS011;44878;50.102;18.982;2023-01-08T04:25:09;125.17;;;113.17;;
59089;SDS011;44878;50.102;18.982;2023-01-08T04:27:39;125.17;;;112.93;;
59089;SDS011;44878;50.102;18.982;2023-01-08T04:30:05;120.63;;;109.20;;
59089;SDS011;44878;50.102;18.982;2023-01-08T04:32:31;103.83;;;94.17;;
59089;SDS011;44878;50.102;18.982;2023-01-08T04:34:59;115.53;;;104.37;;
59089;SDS011;44878;50.102;18.982;2023-01-08T04:37:25;117.87;;;106.53;;
59089;SDS011;44878;50.102;18.982;2023-01-08T04:39:54;109.90;;;99.37;;
59089;SDS011;44878;50.102;18.982;2023-01-08T04:42:20;122.40;;;110.33;;
59089;SDS011;44878;50.102;18.982;2023-01-08T04:44:46;108.77;;;98.50;;
59089;SDS011;44878;50.102;18.982;2023-01-08T04:47:12;96.93;;;87.80;;
59089;SDS011;44878;50.102;18.982;2023-01-08T04:49:42;120.57;;;108.83;;
59089;SDS011;44878;50.102;18.982;2023-01-08T04:52:08;108.97;;;98.63;;
59089;SDS011;44878;50.102;18.982;2023-01-08T04:54:34;132.13;;;119.53;;
59089;SDS011;44878;50.102;18.982;2023-01-08T04:57:00;139.47;;;126.13;;
59089;SDS011;44878;50.102;18.982;2023-01-08T04:59:26;140.20;;;126.73;;
59089;SDS011;44878;50.102;18.982;2023-01-08T05:01:52;127.97;;;115.67;;
59089;SDS011;44878;50.102;18.982;2023-01-08T05:04:20;130.93;;;118.33;;
59089;SDS011;44878;50.102;18.982;2023-01-08T05:06:47;105.53;;;95.60;;
59089;SDS011;44878;50.102;18.982;2023-01-08T05:09:13;130.40;;;117.43;;
59089;SDS011;44878;50.102;18.982;2023-01-08T05:11:39;111.33;;;100.53;;
59089;SDS011;44878;50.102;18.982;2023-01-08T05:14:08;108.00;;;97.50;;
59089;SDS011;44878;50.102;18.982;2023-01-08T05:16:34;108.10;;;97.73;;
59089;SDS011;44878;50.102;18.982;2023-01-08T05:19:00;117.63;;;106.27;;
59089;SDS011;44878;50.102;18.982;2023-01-08T05:21:26;112.63;;;101.93;;
59089;SDS011;44878;50.102;18.982;2023-01-08T05:23:52;116.30;;;105.10;;
59089;SDS011;44878;50.102;18.982;2023-01-08T05:26:18;103.83;;;93.80;;
59089;SDS011;44878;50.102;18.982;2023-01-08T05:28:44;101.07;;;91.00;;
59089;SDS011;44878;50.102;18.982;2023-01-08T05:31:12;100.93;;;91.33;;
59089;SDS011;44878;50.102;18.982;2023-01-08T05:33:41;107.73;;;97.43;;
59089;SDS011;44878;50.102;18.982;2023-01-08T05:38:34;116.70;;;105.05;;
59089;SDS011;44878;50.102;18.982;2023-01-08T05:41:01;117.73;;;106.33;;
59089;SDS011;44878;50.102;18.982;2023-01-08T05:43:27;121.23;;;109.97;;
59089;SDS011;44878;50.102;18.982;2023-01-08T05:45:53;128.73;;;116.32;;
59089;SDS011;44878;50.102;18.982;2023-01-08T05:48:22;120.30;;;109.07;;
59089;SDS011;44878;50.102;18.982;2023-01-08T05:50:49;128.97;;;116.50;;
59089;SDS011;44878;50.102;18.982;2023-01-08T05:53:14;114.53;;;103.77;;
59089;SDS011;44878;50.102;18.982;2023-01-08T05:55:41;102.03;;;92.20;;
59089;SDS011;44878;50.102;18.982;2023-01-08T05:58:07;110.17;;;99.77;;
59089;SDS011;44878;50.102;18.982;2023-01-08T06:00:33;111.53;;;100.87;;
59089;SDS011;44878;50.102;18.982;2023-01-08T06:02:59;108.43;;;98.03;;
59089;SDS011;44878;50.102;18.982;2023-01-08T06:05:25;114.27;;;103.67;;
59089;SDS011;44878;50.102;18.982;2023-01-08T06:07:51;116.00;;;104.87;;
59089;SDS011;44878;50.102;18.982;2023-01-08T06:10:17;115.23;;;104.27;;
59089;SDS011;44878;50.102;18.982;2023-01-08T06:12:44;107.63;;;97.40;;
59089;SDS011;44878;50.102;18.982;2023-01-08T06:15:10;113.67;;;102.87;;
59089;SDS011;44878;50.102;18.982;2023-01-08T06:17:40;124.47;;;112.78;;
59089;SDS011;44878;50.102;18.982;2023-01-08T06:20:06;118.67;;;107.63;;
59089;SDS011;44878;50.102;18.982;2023-01-08T06:22:33;119.67;;;108.40;;
59089;SDS011;44878;50.102;18.982;2023-01-08T06:24:59;118.63;;;107.33;;
59089;SDS011;44878;50.102;18.982;2023-01-08T06:27:28;113.53;;;103.07;;
59089;SDS011;44878;50.102;18.982;2023-01-08T06:29:55;118.93;;;107.67;;
59089;SDS011;44878;50.102;18.982;2023-01-08T06:32:21;116.90;;;106.37;;
59089;SDS011;44878;50.102;18.982;2023-01-08T06:34:47;111.20;;;101.03;;
59089;SDS011;44878;50.102;18.982;2023-01-08T06:37:13;129.93;;;117.43;;
59089;SDS011;44878;50.102;18.982;2023-01-08T06:39:39;109.97;;;99.87;;
59089;SDS011;44878;50.102;18.982;2023-01-08T06:42:07;114.93;;;104.30;;
59089;SDS011;44878;50.102;18.982;2023-01-08T06:44:33;108.93;;;98.75;;
59089;SDS011;44878;50.102;18.982;2023-01-08T06:46:59;111.20;;;100.87;;
59089;SDS011;44878;50.102;18.982;2023-01-08T06:49:28;110.10;;;99.93;;
59089;SDS011;44878;50.102;18.982;2023-01-08T06:51:54;109.33;;;99.03;;
59089;SDS011;44878;50.102;18.982;2023-01-08T06:54:21;109.50;;;99.25;;
59089;SDS011;44878;50.102;18.982;2023-01-08T06:56:49;127.57;;;115.33;;
59089;SDS011;44878;50.102;18.982;2023-01-08T06:59:14;115.25;;;104.60;;
59089;SDS011;44878;50.102;18.982;2023-01-08T07:01:41;130.90;;;118.27;;
59089;SDS011;44878;50.102;18.982;2023-01-08T07:04:07;127.83;;;115.87;;
59089;SDS011;44878;50.102;18.982;2023-01-08T07:06:33;121.60;;;110.30;;
59089;SDS011;44878;50.102;18.982;2023-01-08T07:08:59;119.77;;;108.63;;
59089;SDS011;44878;50.102;18.982;2023-01-08T07:11:28;114.30;;;103.83;;
59089;SDS011;44878;50.102;18.982;2023-01-08T07:13:54;103.33;;;93.90;;
59089;SDS011;44878;50.102;18.982;2023-01-08T07:16:21;88.63;;;80.43;;
59089;SDS011;44878;50.102;18.982;2023-01-08T07:18:47;92.47;;;84.00;;
59089;SDS011;44878;50.102;18.982;2023-01-08T07:21:13;90.17;;;81.93;;
59089;SDS011;44878;50.102;18.982;2023-01-08T07:23:39;77.87;;;70.60;;
59089;SDS011;44878;50.102;18.982;2023-01-08T07:26:06;77.30;;;70.05;;
59089;SDS011;44878;50.102;18.982;2023-01-08T07:28:33;75.90;;;69.07;;
59089;SDS011;44878;50.102;18.982;2023-01-08T07:31:03;75.30;;;68.53;;
59089;SDS011;44878;50.102;18.982;2023-01-08T07:33:30;71.90;;;65.10;;
59089;SDS011;44878;50.102;18.982;2023-01-08T07:35:56;70.73;;;64.17;;
59089;SDS011;44878;50.102;18.982;2023-01-08T07:38:22;71.20;;;64.50;;
59089;SDS011;44878;50.102;18.982;2023-01-08T07:40:48;66.30;;;60.00;;
59089;SDS011;44878;50.102;18.982;2023-01-08T07:43:14;66.17;;;60.10;;
59089;SDS011;44878;50.102;18.982;2023-01-08T07:45:41;63.13;;;57.37;;
59089;SDS011;44878;50.102;18.982;2023-01-08T07:48:10;59.07;;;53.60;;
59089;SDS011;44878;50.102;18.982;2023-01-08T07:50:41;62.23;;;56.40;;
59089;SDS011;44878;50.102;18.982;2023-01-08T07:53:08;58.42;;;53.25;;
59089;SDS011;44878;50.102;18.982;2023-01-08T07:55:36;58.47;;;53.10;;
59089;SDS011;44878;50.102;18.982;2023-01-08T07:58:06;58.30;;;53.00;;
59089;SDS011;44878;50.102;18.982;2023-01-08T08:00:36;56.57;;;51.37;;
59089;SDS011;44878;50.102;18.982;2023-01-08T08:03:03;56.50;;;51.23;;
59089;SDS011;44878;50.102;18.982;2023-01-08T08:05:31;51.53;;;46.83;;
59089;SDS011;44878;50.102;18.982;2023-01-08T08:07:58;52.28;;;47.50;;
59089;SDS011;44878;50.102;18.982;2023-01-08T08:10:24;50.83;;;46.03;;
59089;SDS011;44878;50.102;18.982;2023-01-08T08:12:50;48.70;;;44.00;;
59089;SDS011;44878;50.102;18.982;2023-01-08T08:15:16;49.70;;;44.83;;
59089;SDS011;44878;50.102;18.982;2023-01-08T08:17:43;52.73;;;47.83;;
59089;SDS011;44878;50.102;18.982;2023-01-08T08:20:11;53.37;;;48.23;;
59089;SDS011;44878;50.102;18.982;2023-01-08T08:22:40;56.37;;;51.07;;
59089;SDS011;44878;50.102;18.982;2023-01-08T08:25:06;55.10;;;49.77;;
59089;SDS011;44878;50.102;18.982;2023-01-08T08:27:33;54.87;;;49.50;;
59089;SDS011;44878;50.102;18.982;2023-01-08T08:29:59;53.10;;;48.10;;
59089;SDS011;44878;50.102;18.982;2023-01-08T08:32:25;55.33;;;50.07;;
59089;SDS011;44878;50.102;18.982;2023-01-08T08:34:51;56.27;;;50.90;;
59089;SDS011;44878;50.102;18.982;2023-01-08T08:37:17;54.27;;;49.07;;
59089;SDS011;44878;50.102;18.982;2023-01-08T08:39:47;54.53;;;49.40;;
59089;SDS011;44878;50.102;18.982;2023-01-08T08:42:12;60.47;;;54.87;;
59089;SDS011;44878;50.102;18.982;2023-01-08T08:44:39;61.33;;;55.50;;
59089;SDS011;44878;50.102;18.982;2023-01-08T08:47:08;60.23;;;54.63;;
59089;SDS011;44878;50.102;18.982;2023-01-08T08:49:34;63.07;;;57.03;;
59089;SDS011;44878;50.102;18.982;2023-01-08T08:52:01;71.83;;;65.13;;
59089;SDS011;44878;50.102;18.982;2023-01-08T08:54:28;71.63;;;65.00;;
59089;SDS011;44878;50.102;18.982;2023-01-08T08:56:54;76.90;;;69.77;;
59089;SDS011;44878;50.102;18.982;2023-01-08T08:59:20;69.50;;;62.97;;
59089;SDS011;44878;50.102;18.982;2023-01-08T09:01:46;63.30;;;57.43;;
59089;SDS011;44878;50.102;18.982;2023-01-08T09:04:12;62.77;;;56.97;;
59089;SDS011;44878;50.102;18.982;2023-01-08T09:06:38;66.63;;;60.50;;
59089;SDS011;44878;50.102;18.982;2023-01-08T09:09:04;64.93;;;58.80;;
59089;SDS011;44878;50.102;18.982;2023-01-08T09:11:31;68.57;;;62.30;;
59089;SDS011;44878;50.102;18.982;2023-01-08T09:13:57;67.53;;;61.23;;
59089;SDS011;44878;50.102;18.982;2023-01-08T09:16:23;64.60;;;58.50;;
59089;SDS011;44878;50.102;18.982;2023-01-08T09:18:49;61.50;;;55.77;;
59089;SDS011;44878;50.102;18.982;2023-01-08T09:21:15;57.13;;;51.63;;
59089;SDS011;44878;50.102;18.982;2023-01-08T09:23:46;57.60;;;51.93;;
59089;SDS011;44878;50.102;18.982;2023-01-08T09:26:16;52.00;;;47.30;;
59089;SDS011;44878;50.102;18.982;2023-01-08T09:28:42;49.03;;;44.33;;
59089;SDS011;44878;50.102;18.982;2023-01-08T09:31:08;48.77;;;44.07;;
59089;SDS011;44878;50.102;18.982;2023-01-08T09:33:34;46.13;;;41.83;;
59089;SDS011;44878;50.102;18.982;2023-01-08T09:36:00;45.93;;;41.63;;
59089;SDS011;44878;50.102;18.982;2023-01-08T09:38:26;45.45;;;41.20;;
59089;SDS011;44878;50.102;18.982;2023-01-08T09:40:54;50.10;;;45.53;;
59089;SDS011;44878;50.102;18.982;2023-01-08T09:43:34;50.05;;;45.25;;
59089;SDS011;44878;50.102;18.982;2023-01-08T09:46:03;52.78;;;47.85;;
59089;SDS011;44878;50.102;18.982;2023-01-08T09:48:33;49.55;;;44.85;;
59089;SDS011;44878;50.102;18.982;2023-01-08T09:51:01;50.30;;;45.70;;
59089;SDS011;44878;50.102;18.982;2023-01-08T09:53:28;49.33;;;44.88;;
59089;SDS011;44878;50.102;18.982;2023-01-08T09:55:58;47.43;;;43.10;;
59089;SDS011;44878;50.102;18.982;2023-01-08T10:01:01;44.53;;;40.50;;
59089;SDS011;44878;50.102;18.982;2023-01-08T10:03:29;43.13;;;39.22;;
59089;SDS011;44878;50.102;18.982;2023-01-08T10:06:07;43.83;;;39.60;;
59089;SDS011;44878;50.102;18.982;2023-01-08T10:08:38;44.30;;;40.10;;
59089;SDS011;44878;50.102;18.982;2023-01-08T10:11:04;44.95;;;40.85;;
59089;SDS011;44878;50.102;18.982;2023-01-08T10:13:32;47.55;;;43.03;;
59089;SDS011;44878;50.102;18.982;2023-01-08T10:16:02;46.65;;;42.03;;
59089;SDS011;44878;50.102;18.982;2023-01-08T10:18:32;45.47;;;41.17;;
59089;SDS011;44878;50.102;18.982;2023-01-08T10:20:59;44.17;;;40.08;;
59089;SDS011;44878;50.102;18.982;2023-01-08T10:23:25;46.50;;;42.05;;
59089;SDS011;44878;50.102;18.982;2023-01-08T10:25:56;50.22;;;45.63;;
59089;SDS011;44878;50.102;18.982;2023-01-08T10:28:23;48.72;;;44.08;;
59089;SDS011;44878;50.102;18.982;2023-01-08T10:30:51;51.42;;;46.42;;
59089;SDS011;44878;50.102;18.982;2023-01-08T10:33:20;47.75;;;43.20;;
59089;SDS011;44878;50.102;18.982;2023-01-08T10:36:00;47.67;;;43.17;;
59089;SDS011;44878;50.102;18.982;2023-01-08T10:38:30;50.07;;;45.50;;
59089;SDS011;44878;50.102;18.982;2023-01-08T10:41:00;53.03;;;48.03;;
59089;SDS011;44878;50.102;18.982;2023-01-08T10:43:33;52.57;;;47.53;;
59089;SDS011;44878;50.102;18.982;2023-01-08T10:46:02;51.63;;;46.87;;
59089;SDS011;44878;50.102;18.982;2023-01-08T10:48:39;53.00;;;47.90;;
59089;SDS011;44878;50.102;18.982;2023-01-08T10:51:20;49.97;;;45.10;;
59089;SDS011;44878;50.102;18.982;2023-01-08T10:53:52;49.67;;;45.00;;
59089;SDS011;44878;50.102;18.982;2023-01-08T10:56:29;52.17;;;47.17;;
59089;SDS011;44878;50.102;18.982;2023-01-08T10:59:05;52.43;;;47.63;;
59089;SDS011;44878;50.102;18.982;2023-01-08T11:01:30;49.73;;;45.10;;
59089;SDS011;44878;50.102;18.982;2023-01-08T11:03:58;48.92;;;44.22;;
59089;SDS011;44878;50.102;18.982;2023-01-08T11:06:33;52.23;;;47.33;;
59089;SDS011;44878;50.102;18.982;2023-01-08T11:09:12;49.88;;;45.17;;
59089;SDS011;44878;50.102;18.982;2023-01-08T11:11:46;50.23;;;45.50;;
59089;SDS011;44878;50.102;18.982;2023-01-08T11:16:56;52.47;;;47.63;;
59089;SDS011;44878;50.102;18.982;2023-01-08T11:19:24;54.00;;;49.00;;
59089;SDS011;44878;50.102;18.982;2023-01-08T11:21:56;62.55;;;56.60;;
59089;SDS011;44878;50.102;18.982;2023-01-08T11:27:04;50.38;;;45.65;;
59089;SDS011;44878;50.102;18.982;2023-01-08T11:35:45;46.47;;;42.17;;
59089;SDS011;44878;50.102;18.982;2023-01-08T11:38:15;44.10;;;40.00;;
59089;SDS011;44878;50.102;18.982;2023-01-08T11:48:30;43.05;;;39.15;;
59089;SDS011;44878;50.102;18.982;2023-01-08T11:51:16;44.25;;;40.00;;
59089;SDS011;44878;50.102;18.982;2023-01-08T11:54:14;44.17;;;40.10;;
59089;SDS011;44878;50.102;18.982;2023-01-08T12:00:10;40.88;;;37.22;;
59089;SDS011;44878;50.102;18.982;2023-01-08T12:08:05;45.45;;;41.45;;
59089;SDS011;44878;50.102;18.982;2023-01-08T12:19:09;39.00;;;35.40;;
59089;SDS011;44878;50.102;18.982;2023-01-08T12:22:07;37.08;;;33.65;;
59089;SDS011;44878;50.102;18.982;2023-01-08T12:28:13;33.47;;;30.52;;
59089;SDS011;44878;50.102;18.982;2023-01-08T12:33:48;30.95;;;28.17;;
59089;SDS011;44878;50.102;18.982;2023-01-08T12:39:24;40.28;;;36.35;;
59089;SDS011;44878;50.102;18.982;2023-01-08T12:42:05;35.70;;;32.50;;
59089;SDS011;44878;50.102;18.982;2023-01-08T12:44:43;35.63;;;32.42;;
59089;SDS011;44878;50.102;18.982;2023-01-08T12:47:12;61.95;;;55.78;;
59089;SDS011;44878;50.102;18.982;2023-01-08T12:49:50;40.47;;;36.65;;
59089;SDS011;44878;50.102;18.982;2023-01-08T12:52:50;36.50;;;33.10;;
59089;SDS011;44878;50.102;18.982;2023-01-08T13:01:01;38.45;;;34.90;;
59089;SDS011;44878;50.102;18.982;2023-01-08T13:03:46;37.47;;;34.08;;
59089;SDS011;44878;50.102;18.982;2023-01-08T13:06:14;39.20;;;35.55;;
59089;SDS011;44878;50.102;18.982;2023-01-08T13:08:44;40.63;;;36.83;;
59089;SDS011;44878;50.102;18.982;2023-01-08T13:11:23;43.50;;;39.43;;
59089;SDS011;44878;50.102;18.982;2023-01-08T13:13:59;43.45;;;39.35;;
59089;SDS011;44878;50.102;18.982;2023-01-08T13:16:29;41.13;;;37.22;;
59089;SDS011;44878;50.102;18.982;2023-01-08T13:19:00;38.97;;;35.40;;
59089;SDS011;44878;50.102;18.982;2023-01-08T13:21:40;38.88;;;35.25;;
59089;SDS011;44878;50.102;18.982;2023-01-08T13:29:43;38.65;;;35.00;;
59089;SDS011;44878;50.102;18.982;2023-01-08T13:32:22;40.05;;;36.20;;
59089;SDS011;44878;50.102;18.982;2023-01-08T13:38:03;39.22;;;35.55;;
59089;SDS011;44878;50.102;18.982;2023-01-08T13:43:30;42.17;;;38.15;;
59089;SDS011;44878;50.102;18.982;2023-01-08T13:46:15;41.97;;;38.10;;
59089;SDS011;44878;50.102;18.982;2023-01-08T13:48:52;41.08;;;37.15;;
59089;SDS011;44878;50.102;18.982;2023-01-08T13:51:32;44.03;;;39.85;;
59089;SDS011;44878;50.102;18.982;2023-01-08T13:56:40;44.27;;;40.10;;
59089;SDS011;44878;50.102;18.982;2023-01-08T13:59:30;47.03;;;42.63;;
59089;SDS011;44878;50.102;18.982;2023-01-08T14:02:03;51.23;;;46.33;;
59089;SDS011;44878;50.102;18.982;2023-01-08T14:04:49;52.30;;;47.10;;
59089;SDS011;44878;50.102;18.982;2023-01-08T14:07:17;60.30;;;54.40;;
59089;SDS011;44878;50.102;18.982;2023-01-08T14:09:43;49.80;;;45.20;;
59089;SDS011;44878;50.102;18.982;2023-01-08T14:12:11;51.53;;;46.73;;
59089;SDS011;44878;50.102;18.982;2023-01-08T14:14:42;62.30;;;56.30;;
59089;SDS011;44878;50.102;18.982;2023-01-08T14:17:14;60.57;;;54.67;;
59089;SDS011;44878;50.102;18.982;2023-01-08T14:19:42;63.07;;;56.93;;
59089;SDS011;44878;50.102;18.982;2023-01-08T14:22:19;64.80;;;58.50;;
59089;SDS011;44878;50.102;18.982;2023-01-08T14:24:54;73.57;;;66.37;;
59089;SDS011;44878;50.102;18.982;2023-01-08T14:27:26;95.63;;;86.03;;
59089;SDS011;44878;50.102;18.982;2023-01-08T14:29:54;86.63;;;78.17;;
59089;SDS011;44878;50.102;18.982;2023-01-08T14:32:25;70.50;;;63.58;;
59089;SDS011;44878;50.102;18.982;2023-01-08T14:34:53;76.33;;;68.73;;
59089;SDS011;44878;50.102;18.982;2023-01-08T14:37:22;75.53;;;67.83;;
59089;SDS011;44878;50.102;18.982;2023-01-08T14:39:48;69.63;;;62.87;;
59089;SDS011;44878;50.102;18.982;2023-01-08T14:42:18;66.77;;;60.37;;
59089;SDS011;44878;50.102;18.982;2023-01-08T14:45:27;70.97;;;64.23;;
59089;SDS011;44878;50.102;18.982;2023-01-08T14:50:39;88.73;;;80.43;;
59089;SDS011;44878;50.102;18.982;2023-01-08T14:53:19;68.60;;;62.03;;
59089;SDS011;44878;50.102;18.982;2023-01-08T14:55:51;76.07;;;68.97;;
59089;SDS011;44878;50.102;18.982;2023-01-08T14:58:23;72.13;;;65.33;;
59089;SDS011;44878;50.102;18.982;2023-01-08T15:00:53;77.63;;;70.23;;
59089;SDS011;44878;50.102;18.982;2023-01-08T15:03:31;76.73;;;69.33;;
59089;SDS011;44878;50.102;18.982;2023-01-08T15:06:02;78.83;;;71.27;;
59089;SDS011;44878;50.102;18.982;2023-01-08T15:13:48;93.13;;;84.73;;
59089;SDS011;44878;50.102;18.982;2023-01-08T15:16:16;93.37;;;84.53;;
59089;SDS011;44878;50.102;18.982;2023-01-08T15:19:11;85.20;;;77.07;;
59089;SDS011;44878;50.102;18.982;2023-01-08T15:21:47;101.37;;;91.77;;
59089;SDS011;44878;50.102;18.982;2023-01-08T15:26:46;101.03;;;91.63;;
59089;SDS011;44878;50.102;18.982;2023-01-08T15:29:15;91.37;;;82.70;;
59089;SDS011;44878;50.102;18.982;2023-01-08T15:31:44;82.00;;;74.30;;
59089;SDS011;44878;50.102;18.982;2023-01-08T15:34:12;83.17;;;75.37;;
59089;SDS011;44878;50.102;18.982;2023-01-08T15:36:38;85.20;;;77.07;;
59089;SDS011;44878;50.102;18.982;2023-01-08T15:39:04;96.80;;;87.77;;
59089;SDS011;44878;50.102;18.982;2023-01-08T15:41:32;77.43;;;70.13;;
59089;SDS011;44878;50.102;18.982;2023-01-08T15:44:17;100.43;;;90.90;;
59089;SDS011;44878;50.102;18.982;2023-01-08T15:46:46;118.20;;;107.00;;
59089;SDS011;44878;50.102;18.982;2023-01-08T15:49:12;102.30;;;92.60;;
59089;SDS011;44878;50.102;18.982;2023-01-08T15:51:42;119.73;;;108.57;;
59089;SDS011;44878;50.102;18.982;2023-01-08T15:54:14;107.17;;;96.93;;
59089;SDS011;44878;50.102;18.982;2023-01-08T15:56:41;105.70;;;95.57;;
59089;SDS011;44878;50.102;18.982;2023-01-08T15:59:07;101.20;;;91.45;;
59089;SDS011;44878;50.102;18.982;2023-01-08T16:01:33;100.20;;;90.67;;
59089;SDS011;44878;50.102;18.982;2023-01-08T16:04:00;97.60;;;88.60;;
59089;SDS011;44878;50.102;18.982;2023-01-08T16:06:26;102.30;;;92.70;;
59089;SDS011;44878;50.102;18.982;2023-01-08T16:08:52;98.03;;;88.60;;